sensor_id;sensor_type;location;lat;lon;timestamp;pressure;altitude;pressure_sealevel;temperature;humidity
57827;BME280;43656;57.746;11.780;2023-03-25T00:02:17;99039.56;;;9.92;100.00
57827;BME280;43656;57.746;11.780;2023-03-25T00:04:43;99018.88;;;9.64;100.00
57827;BME280;43656;57.746;11.780;2023-03-25T00:07:08;99025.84;;;9.77;100.00
57827;BME280;43656;57.746;11.780;2023-03-25T00:09:34;99028.75;;;9.75;100.00
57827;BME280;43656;57.746;11.780;2023-03-25T00:11:59;99028.66;;;9.70;100.00
57827;BME280;43656;57.746;11.780;2023-03-25T00:14:25;99011.28;;;9.61;100.00
57827;BME280;43656;57.746;11.780;2023-03-25T00:16:50;99035.06;;;9.69;100.00
57827;BME280;43656;57.746;11.780;2023-03-25T00:19:17;99023.78;;;9.67;100.00
57827;BME280;43656;57.746;11.780;2023-03-25T00:21:48;99008.69;;;9.78;100.00
57827;BME280;43656;57.746;11.780;2023-03-25T00:24:16;99010.47;;;9.60;100.00
57827;BME280;43656;57.746;11.780;2023-03-25T00:26:43;99009.28;;;9.68;100.00
57827;BME280;43656;57.746;11.780;2023-03-25T00:29:10;99017.34;;;9.68;100.00
57827;BME280;43656;57.746;11.780;2023-03-25T00:31:36;99010.91;;;9.69;100.00
57827;BME280;43656;57.746;11.780;2023-03-25T00:34:01;99012.09;;;9.61;100.00
57827;BME280;43656;57.746;11.780;2023-03-25T00:36:27;99015.72;;;9.67;100.00
57827;BME280;43656;57.746;11.780;2023-03-25T00:38:53;99006.13;;;9.59;100.00
57827;BME280;43656;57.746;11.780;2023-03-25T00:41:21;98987.25;;;9.54;100.00
57827;BME280;43656;57.746;11.780;2023-03-25T00:43:57;98995.78;;;9.51;100.00
57827;BME280;43656;57.746;11.780;2023-03-25T00:46:24;99007.19;;;9.58;100.00
57827;BME280;43656;57.746;11.780;2023-03-25T00:48:51;99002.97;;;9.62;100.00
57827;BME280;43656;57.746;11.780;2023-03-25T00:51:16;99007.31;;;9.63;100.00
57827;BME280;43656;57.746;11.780;2023-03-25T00:53:44;99003.44;;;9.59;100.00
57827;BME280;43656;57.746;11.780;2023-03-25T00:56:10;99010.69;;;9.71;100.00
57827;BME280;43656;57.746;11.780;2023-03-25T00:58:37;99011.28;;;9.61;100.00
57827;BME280;43656;57.746;11.780;2023-03-25T01:01:21;99009.88;;;9.58;100.00
57827;BME280;43656;57.746;11.780;2023-03-25T01:03:48;99010.09;;;9.69;100.00
57827;BME280;43656;57.746;11.780;2023-03-25T01:06:15;99002.31;;;9.55;100.00
57827;BME280;43656;57.746;11.780;2023-03-25T01:08:42;99011.28;;;9.61;100.00
57827;BME280;43656;57.746;11.780;2023-03-25T01:11:20;98998.88;;;9.60;100.00
57827;BME280;43656;57.746;11.780;2023-03-25T01:13:46;98985.38;;;9.55;100.00
57827;BME280;43656;57.746;11.780;2023-03-25T01:16:11;99014.53;;;9.63;100.00
57827;BME280;43656;57.746;11.780;2023-03-25T01:18:37;99010.00;;;9.63;100.00
57827;BME280;43656;57.746;11.780;2023-03-25T01:21:06;99007.66;;;9.67;100.00
57827;BME280;43656;57.746;11.780;2023-03-25T01:23:33;99014.06;;;9.66;100.00
57827;BME280;43656;57.746;11.780;2023-03-25T01:25:59;99006.13;;;9.59;100.00
57827;BME280;43656;57.746;11.780;2023-03-25T01:28:25;98992.03;;;9.52;100.00
57827;BME280;43656;57.746;11.780;2023-03-25T01:30:50;99000.53;;;9.61;100.00
57827;BME280;43656;57.746;11.780;2023-03-25T01:33:16;98992.50;;;9.49;100.00
57827;BME280;43656;57.746;11.780;2023-03-25T01:35:41;99002.63;;;9.59;100.00
57827;BME280;43656;57.746;11.780;2023-03-25T01:38:07;99005.09;;;9.60;100.00
57827;BME280;43656;57.746;11.780;2023-03-25T01:40:32;98993.44;;;9.55;100.00
57827;BME280;43656;57.746;11.780;2023-03-25T01:42:58;99003.56;;;9.64;100.00
57827;BME280;43656;57.746;11.780;2023-03-25T01:48:01;98997.75;;;9.56;100.00
57827;BME280;43656;57.746;11.780;2023-03-25T01:50:29;98987.47;;;9.53;100.00
57827;BME280;43656;57.746;11.780;2023-03-25T01:52:57;98987.47;;;9.53;100.00
57827;BME280;43656;57.746;11.780;2023-03-25T01:55:25;98988.88;;;9.44;100.00
57827;BME280;43656;57.746;11.780;2023-03-25T01:57:53;98971.28;;;9.36;100.00
57827;BME280;43656;57.746;11.780;2023-03-25T02:00:20;98994.84;;;9.46;100.00
57827;BME280;43656;57.746;11.780;2023-03-25T02:02:47;98988.66;;;9.45;100.00
57827;BME280;43656;57.746;11.780;2023-03-25T02:07:43;98973.75;;;9.37;100.00
57827;BME280;43656;57.746;11.780;2023-03-25T02:10:11;98972.91;;;9.49;100.00
57827;BME280;43656;57.746;11.780;2023-03-25T02:12:37;98971.38;;;9.53;100.00
57827;BME280;43656;57.746;11.780;2023-03-25T02:15:05;98956.53;;;9.50;100.00
57827;BME280;43656;57.746;11.780;2023-03-25T02:26:16;98957.59;;;9.61;100.00
57827;BME280;43656;57.746;11.780;2023-03-25T02:32:17;98975.91;;;9.64;100.00
57827;BME280;43656;57.746;11.780;2023-03-25T02:38:12;98960.75;;;9.58;100.00
57827;BME280;43656;57.746;11.780;2023-03-25T02:40:55;98945.78;;;9.50;100.00
57827;BME280;43656;57.746;11.780;2023-03-25T02:45:57;98942.88;;;9.52;100.00
57827;BME280;43656;57.746;11.780;2023-03-25T02:48:55;98933.63;;;9.59;100.00
57827;BME280;43656;57.746;11.780;2023-03-25T02:51:39;98936.91;;;9.61;100.00
57827;BME280;43656;57.746;11.780;2023-03-25T02:54:10;98932.50;;;9.55;100.00
57827;BME280;43656;57.746;11.780;2023-03-25T02:56:39;98937.28;;;9.53;100.00
57827;BME280;43656;57.746;11.780;2023-03-25T02:59:06;98937.53;;;9.52;100.00
57827;BME280;43656;57.746;11.780;2023-03-25T03:01:34;98949.31;;;9.51;100.00
57827;BME280;43656;57.746;11.780;2023-03-25T03:04:00;98948.97;;;9.47;100.00
57827;BME280;43656;57.746;11.780;2023-03-25T03:06:26;98945.78;;;9.50;100.00
57827;BME280;43656;57.746;11.780;2023-03-25T03:09:00;98946.44;;;9.40;100.00
57827;BME280;43656;57.746;11.780;2023-03-25T03:16:56;98941.06;;;9.40;100.00
57827;BME280;43656;57.746;11.780;2023-03-25T03:19:50;98944.03;;;9.56;100.00
57827;BME280;43656;57.746;11.780;2023-03-25T03:27:29;98918.13;;;9.50;100.00
57827;BME280;43656;57.746;11.780;2023-03-25T03:30:16;98928.59;;;9.34;100.00
57827;BME280;43656;57.746;11.780;2023-03-25T03:35:46;98929.59;;;9.45;100.00
57827;BME280;43656;57.746;11.780;2023-03-25T03:38:18;98933.28;;;9.56;100.00
57827;BME280;43656;57.746;11.780;2023-03-25T03:40:52;98920.59;;;9.51;100.00
57827;BME280;43656;57.746;11.780;2023-03-25T03:45:55;98916.84;;;9.52;100.00
57827;BME280;43656;57.746;11.780;2023-03-25T03:48:27;98929.22;;;9.53;100.00
57827;BME280;43656;57.746;11.780;2023-03-25T03:51:46;98927.47;;;9.59;100.00
57827;BME280;43656;57.746;11.780;2023-03-25T03:54:22;98907.41;;;9.50;100.00
57827;BME280;43656;57.746;11.780;2023-03-25T04:00:12;98925.22;;;9.68;100.00
57827;BME280;43656;57.746;11.780;2023-03-25T04:02:37;98911.06;;;9.72;100.00
57827;BME280;43656;57.746;11.780;2023-03-25T04:05:12;98923.94;;;9.70;100.00
57827;BME280;43656;57.746;11.780;2023-03-25T04:07:52;98926.50;;;9.65;100.00
57827;BME280;43656;57.746;11.780;2023-03-25T04:13:45;98911.78;;;9.68;100.00
57827;BME280;43656;57.746;11.780;2023-03-25T04:16:11;98915.03;;;9.70;100.00
57827;BME280;43656;57.746;11.780;2023-03-25T04:18:37;98906.16;;;9.69;100.00
57827;BME280;43656;57.746;11.780;2023-03-25T04:21:04;98913.31;;;9.63;100.00
57827;BME280;43656;57.746;11.780;2023-03-25T04:23:29;98910.88;;;9.62;100.00
57827;BME280;43656;57.746;11.780;2023-03-25T04:25:56;98912.81;;;9.67;100.00
57827;BME280;43656;57.746;11.780;2023-03-25T04:28:21;98914.22;;;9.69;100.00
57827;BME280;43656;57.746;11.780;2023-03-25T04:30:48;98899.78;;;9.58;100.00
57827;BME280;43656;57.746;11.780;2023-03-25T04:33:14;98900.38;;;9.60;100.00
57827;BME280;43656;57.746;11.780;2023-03-25T04:35:40;98867.28;;;9.43;100.00
57827;BME280;43656;57.746;11.780;2023-03-25T04:38:06;98897.22;;;9.63;100.00
57827;BME280;43656;57.746;11.780;2023-03-25T04:40:32;98898.78;;;9.48;100.00
57827;BME280;43656;57.746;11.780;2023-03-25T04:42:57;98893.41;;;9.48;100.00
57827;BME280;43656;57.746;11.780;2023-03-25T04:45:23;98897.25;;;9.52;100.00
57827;BME280;43656;57.746;11.780;2023-03-25T04:47:50;98895.72;;;9.56;100.00
57827;BME280;43656;57.746;11.780;2023-03-25T04:50:28;98890.00;;;9.52;100.00
57827;BME280;43656;57.746;11.780;2023-03-25T04:52:54;98886.72;;;9.50;100.00
57827;BME280;43656;57.746;11.780;2023-03-25T04:55:25;98895.63;;;9.51;100.00
57827;BME280;43656;57.746;11.780;2023-03-25T04:57:52;98896.78;;;9.55;100.00
57827;BME280;43656;57.746;11.780;2023-03-25T05:00:20;98898.97;;;9.58;100.00
57827;BME280;43656;57.746;11.780;2023-03-25T05:02:51;98905.78;;;9.49;100.00
57827;BME280;43656;57.746;11.780;2023-03-25T05:05:19;98911.16;;;9.37;100.00
57827;BME280;43656;57.746;11.780;2023-03-25T05:07:46;98946.53;;;9.46;100.00
57827;BME280;43656;57.746;11.780;2023-03-25T05:10:14;98946.56;;;9.34;100.00
57827;BME280;43656;57.746;11.780;2023-03-25T05:12:40;98925.69;;;9.24;100.00
57827;BME280;43656;57.746;11.780;2023-03-25T05:15:07;98925.66;;;9.36;100.00
57827;BME280;43656;57.746;11.780;2023-03-25T05:17:35;98916.53;;;9.37;100.00
57827;BME280;43656;57.746;11.780;2023-03-25T05:20:00;98917.47;;;9.43;100.00
57827;BME280;43656;57.746;11.780;2023-03-25T05:22:25;98914.22;;;9.40;100.00
57827;BME280;43656;57.746;11.780;2023-03-25T05:24:51;98927.50;;;9.47;100.00
57827;BME280;43656;57.746;11.780;2023-03-25T05:27:19;98935.91;;;9.51;100.00
57827;BME280;43656;57.746;11.780;2023-03-25T05:29:45;98911.53;;;9.40;100.00
57827;BME280;43656;57.746;11.780;2023-03-25T05:32:11;98926.78;;;9.52;100.00
57827;BME280;43656;57.746;11.780;2023-03-25T05:34:43;98926.38;;;9.60;100.00
57827;BME280;43656;57.746;11.780;2023-03-25T05:37:12;98926.78;;;9.52;100.00
57827;BME280;43656;57.746;11.780;2023-03-25T05:39:38;98938.34;;;9.52;100.00
57827;BME280;43656;57.746;11.780;2023-03-25T05:42:05;98921.56;;;9.45;100.00
57827;BME280;43656;57.746;11.780;2023-03-25T05:44:30;98935.91;;;9.51;100.00
57827;BME280;43656;57.746;11.780;2023-03-25T05:46:56;98944.50;;;9.53;100.00
57827;BME280;43656;57.746;11.780;2023-03-25T05:49:25;98911.63;;;9.46;100.00
57827;BME280;43656;57.746;11.780;2023-03-25T05:51:50;98942.28;;;9.61;100.00
57827;BME280;43656;57.746;11.780;2023-03-25T05:54:18;98917.31;;;9.49;100.00
57827;BME280;43656;57.746;11.780;2023-03-25T05:56:44;98935.66;;;9.52;100.00
57827;BME280;43656;57.746;11.780;2023-03-25T05:59:09;98935.28;;;9.60;100.00
57827;BME280;43656;57.746;11.780;2023-03-25T06:01:35;98938.19;;;9.59;100.00
57827;BME280;43656;57.746;11.780;2023-03-25T06:04:02;98907.41;;;9.50;100.00
57827;BME280;43656;57.746;11.780;2023-03-25T06:06:29;98936.66;;;9.63;100.00
57827;BME280;43656;57.746;11.780;2023-03-25T06:08:56;98918.81;;;9.57;100.00
57827;BME280;43656;57.746;11.780;2023-03-25T06:11:22;98942.16;;;9.68;100.00
57827;BME280;43656;57.746;11.780;2023-03-25T06:13:48;98931.41;;;9.68;100.00
57827;BME280;43656;57.746;11.780;2023-03-25T06:16:19;98934.53;;;9.77;100.00
57827;BME280;43656;57.746;11.780;2023-03-25T06:18:46;98930.84;;;9.83;100.00
57827;BME280;43656;57.746;11.780;2023-03-25T06:21:16;98934.13;;;9.85;100.00
57827;BME280;43656;57.746;11.780;2023-03-25T06:23:42;98938.28;;;9.93;100.00
57827;BME280;43656;57.746;11.780;2023-03-25T06:26:07;98909.00;;;9.62;100.00
57827;BME280;43656;57.746;11.780;2023-03-25T06:28:34;98939.84;;;9.88;100.00
57827;BME280;43656;57.746;11.780;2023-03-25T06:31:00;98935.72;;;9.98;100.00
57827;BME280;43656;57.746;11.780;2023-03-25T06:33:27;98931.31;;;9.92;100.00
57827;BME280;43656;57.746;11.780;2023-03-25T06:35:53;98938.41;;;9.98;100.00
57827;BME280;43656;57.746;11.780;2023-03-25T06:38:19;98941.91;;;9.98;100.00
57827;BME280;43656;57.746;11.780;2023-03-25T06:40:48;98948.69;;;10.01;100.00
57827;BME280;43656;57.746;11.780;2023-03-25T06:43:13;98939.69;;;9.95;100.00
57827;BME280;43656;57.746;11.780;2023-03-25T06:45:39;98950.22;;;9.97;100.00
57827;BME280;43656;57.746;11.780;2023-03-25T06:48:04;98948.28;;;10.09;100.00
57827;BME280;43656;57.746;11.780;2023-03-25T06:50:31;98929.88;;;10.01;100.00
57827;BME280;43656;57.746;11.780;2023-03-25T06:52:57;98932.63;;;10.06;100.00
57827;BME280;43656;57.746;11.780;2023-03-25T06:55:23;98946.25;;;10.16;100.00
57827;BME280;43656;57.746;11.780;2023-03-25T06:57:48;98906.53;;;9.89;100.00
57827;BME280;43656;57.746;11.780;2023-03-25T07:00:14;98944.63;;;10.15;100.00
57827;BME280;43656;57.746;11.780;2023-03-25T07:02:46;98939.06;;;10.05;100.00
57827;BME280;43656;57.746;11.780;2023-03-25T07:05:12;98939.88;;;10.05;100.00
57827;BME280;43656;57.746;11.780;2023-03-25T07:07:37;98958.16;;;10.20;100.00
57827;BME280;43656;57.746;11.780;2023-03-25T07:10:03;98943.22;;;10.12;100.00
57827;BME280;43656;57.746;11.780;2023-03-25T07:12:28;98946.81;;;10.18;100.00
57827;BME280;43656;57.746;11.780;2023-03-25T07:14:55;98963.06;;;10.23;100.00
57827;BME280;43656;57.746;11.780;2023-03-25T07:17:22;98960.25;;;10.18;100.00
57827;BME280;43656;57.746;11.780;2023-03-25T07:19:48;98966.31;;;10.25;100.00
57827;BME280;43656;57.746;11.780;2023-03-25T07:22:13;98974.25;;;10.32;100.00
57827;BME280;43656;57.746;11.780;2023-03-25T07:24:39;98960.25;;;10.30;100.00
57827;BME280;43656;57.746;11.780;2023-03-25T07:27:04;98975.72;;;10.40;100.00
57827;BME280;43656;57.746;11.780;2023-03-25T07:29:30;98959.34;;;10.41;100.00
57827;BME280;43656;57.746;11.780;2023-03-25T07:31:55;98977.28;;;10.52;100.00
57827;BME280;43656;57.746;11.780;2023-03-25T07:34:21;98967.09;;;10.54;100.00
57827;BME280;43656;57.746;11.780;2023-03-25T07:36:47;98983.34;;;10.60;100.00
57827;BME280;43656;57.746;11.780;2023-03-25T07:39:13;98964.75;;;10.58;100.00
57827;BME280;43656;57.746;11.780;2023-03-25T07:41:38;98981.28;;;10.67;100.00
57827;BME280;43656;57.746;11.780;2023-03-25T07:44:04;98983.00;;;10.73;100.00
57827;BME280;43656;57.746;11.780;2023-03-25T07:46:29;98985.69;;;10.73;100.00
57827;BME280;43656;57.746;11.780;2023-03-25T07:48:55;98971.19;;;10.57;100.00
57827;BME280;43656;57.746;11.780;2023-03-25T07:51:20;98987.66;;;10.77;100.00
57827;BME280;43656;57.746;11.780;2023-03-25T07:53:46;98990.41;;;10.82;100.00
57827;BME280;43656;57.746;11.780;2023-03-25T07:56:12;98969.56;;;10.73;100.00
57827;BME280;43656;57.746;11.780;2023-03-25T07:58:37;98981.94;;;10.91;100.00
57827;BME280;43656;57.746;11.780;2023-03-25T08:01:04;98978.47;;;11.12;100.00
57827;BME280;43656;57.746;11.780;2023-03-25T08:03:29;98984.16;;;11.16;100.00
57827;BME280;43656;57.746;11.780;2023-03-25T08:06:01;98970.16;;;11.14;100.00
57827;BME280;43656;57.746;11.780;2023-03-25T08:08:27;98980.00;;;11.25;100.00
57827;BME280;43656;57.746;11.780;2023-03-25T08:10:56;98993.16;;;11.21;100.00
57827;BME280;43656;57.746;11.780;2023-03-25T08:13:22;98984.34;;;11.26;100.00
57827;BME280;43656;57.746;11.780;2023-03-25T08:15:47;98979.97;;;11.42;100.00
57827;BME280;43656;57.746;11.780;2023-03-25T08:18:13;98982.91;;;11.40;100.00
57827;BME280;43656;57.746;11.780;2023-03-25T08:20:38;98985.75;;;11.50;100.00
57827;BME280;43656;57.746;11.780;2023-03-25T08:23:04;98995.69;;;11.50;100.00
57827;BME280;43656;57.746;11.780;2023-03-25T08:25:35;99001.09;;;11.50;100.00
57827;BME280;43656;57.746;11.780;2023-03-25T08:28:02;99000.31;;;11.55;100.00
57827;BME280;43656;57.746;11.780;2023-03-25T08:30:28;99003.97;;;11.65;100.00
57827;BME280;43656;57.746;11.780;2023-03-25T08:32:53;99003.66;;;11.62;100.00
57827;BME280;43656;57.746;11.780;2023-03-25T08:35:20;98997.44;;;11.61;100.00
57827;BME280;43656;57.746;11.780;2023-03-25T08:37:46;98992.06;;;11.61;100.00
57827;BME280;43656;57.746;11.780;2023-03-25T08:40:12;99000.03;;;11.73;100.00
57827;BME280;43656;57.746;11.780;2023-03-25T08:42:38;98983.56;;;11.69;100.00
57827;BME280;43656;57.746;11.780;2023-03-25T08:45:04;99006.00;;;11.97;100.00
57827;BME280;43656;57.746;11.780;2023-03-25T08:47:30;98994.66;;;11.95;100.00
57827;BME280;43656;57.746;11.780;2023-03-25T08:49:56;98992.78;;;11.95;100.00
57827;BME280;43656;57.746;11.780;2023-03-25T08:52:22;98994.31;;;12.13;100.00
57827;BME280;43656;57.746;11.780;2023-03-25T08:54:48;99003.44;;;12.34;100.00
57827;BME280;43656;57.746;11.780;2023-03-25T08:57:13;99009.28;;;12.53;100.00
57827;BME280;43656;57.746;11.780;2023-03-25T08:59:38;98992.28;;;12.53;100.00
57827;BME280;43656;57.746;11.780;2023-03-25T09:02:05;99010.16;;;12.59;100.00
57827;BME280;43656;57.746;11.780;2023-03-25T09:04:31;99017.44;;;12.58;100.00
57827;BME280;43656;57.746;11.780;2023-03-25T09:06:56;99011.78;;;12.33;100.00
57827;BME280;43656;57.746;11.780;2023-03-25T09:09:22;99021.66;;;12.22;100.00
57827;BME280;43656;57.746;11.780;2023-03-25T09:11:47;99026.94;;;11.90;100.00
57827;BME280;43656;57.746;11.780;2023-03-25T09:14:13;99026.69;;;11.91;100.00
57827;BME280;43656;57.746;11.780;2023-03-25T09:16:39;99022.53;;;11.84;100.00
57827;BME280;43656;57.746;11.780;2023-03-25T09:19:05;99034.03;;;11.96;100.00
57827;BME280;43656;57.746;11.780;2023-03-25T09:21:30;99029.41;;;12.18;100.00
57827;BME280;43656;57.746;11.780;2023-03-25T09:23:56;99033.28;;;12.28;100.00
57827;BME280;43656;57.746;11.780;2023-03-25T09:26:21;99039.50;;;12.28;100.00
57827;BME280;43656;57.746;11.780;2023-03-25T09:28:47;99040.72;;;12.15;100.00
57827;BME280;43656;57.746;11.780;2023-03-25T09:31:13;99045.03;;;12.16;100.00
57827;BME280;43656;57.746;11.780;2023-03-25T09:33:39;99040.59;;;12.05;100.00
57827;BME280;43656;57.746;11.780;2023-03-25T09:36:05;99043.44;;;11.93;100.00
57827;BME280;43656;57.746;11.780;2023-03-25T09:38:32;99039.19;;;11.81;100.00
57827;BME280;43656;57.746;11.780;2023-03-25T09:41:03;99042.25;;;11.67;100.00
57827;BME280;43656;57.746;11.780;2023-03-25T09:44:18;99045.88;;;11.56;100.00
57827;BME280;43656;57.746;11.780;2023-03-25T09:46:46;99049.47;;;11.45;100.00
57827;BME280;43656;57.746;11.780;2023-03-25T09:49:16;99056.44;;;11.41;100.00
57827;BME280;43656;57.746;11.780;2023-03-25T09:51:43;99059.88;;;11.36;100.00
57827;BME280;43656;57.746;11.780;2023-03-25T09:54:15;99065.09;;;11.43;100.00
57827;BME280;43656;57.746;11.780;2023-03-25T09:56:43;99059.22;;;11.46;100.00
57827;BME280;43656;57.746;11.780;2023-03-25T09:59:18;99074.88;;;11.49;100.00
57827;BME280;43656;57.746;11.780;2023-03-25T10:02:07;99064.91;;;11.49;100.00
57827;BME280;43656;57.746;11.780;2023-03-25T10:07:43;99077.38;;;11.72;100.00
57827;BME280;43656;57.746;11.780;2023-03-25T10:10:16;99072.38;;;11.64;100.00
57827;BME280;43656;57.746;11.780;2023-03-25T10:13:13;99071.88;;;11.67;100.00
57827;BME280;43656;57.746;11.780;2023-03-25T10:15:48;99076.53;;;11.89;100.00
57827;BME280;43656;57.746;11.780;2023-03-25T10:18:46;99079.63;;;11.81;100.00
57827;BME280;43656;57.746;11.780;2023-03-25T10:21:31;99080.56;;;11.69;100.00
57827;BME280;43656;57.746;11.780;2023-03-25T10:24:07;99083.78;;;11.71;100.00
57827;BME280;43656;57.746;11.780;2023-03-25T10:27:12;99083.88;;;11.76;100.00
57827;BME280;43656;57.746;11.780;2023-03-25T10:29:49;99092.34;;;11.85;100.00
57827;BME280;43656;57.746;11.780;2023-03-25T10:32:31;99080.53;;;11.86;100.00
57827;BME280;43656;57.746;11.780;2023-03-25T10:35:00;99084.78;;;11.82;100.00
57827;BME280;43656;57.746;11.780;2023-03-25T10:37:31;99085.94;;;11.69;100.00
57827;BME280;43656;57.746;11.780;2023-03-25T10:40:21;99086.16;;;11.68;100.00
57827;BME280;43656;57.746;11.780;2023-03-25T10:45:22;99086.25;;;11.73;100.00
57827;BME280;43656;57.746;11.780;2023-03-25T10:47:50;99094.25;;;11.85;100.00
57827;BME280;43656;57.746;11.780;2023-03-25T10:50:18;99083.47;;;11.85;100.00
57827;BME280;43656;57.746;11.780;2023-03-25T10:52:46;99073.25;;;11.87;100.00
57827;BME280;43656;57.746;11.780;2023-03-25T10:55:27;99086.00;;;12.13;100.00
57827;BME280;43656;57.746;11.780;2023-03-25T10:57:56;99085.59;;;12.27;100.00
57827;BME280;43656;57.746;11.780;2023-03-25T11:00:22;99090.44;;;12.25;100.00
57827;BME280;43656;57.746;11.780;2023-03-25T11:02:50;99081.72;;;12.17;100.00
57827;BME280;43656;57.746;11.780;2023-03-25T11:05:20;99092.19;;;12.36;100.00
57827;BME280;43656;57.746;11.780;2023-03-25T11:07:53;99085.91;;;12.52;100.00
57827;BME280;43656;57.746;11.780;2023-03-25T11:10:33;99088.28;;;12.49;100.00
57827;BME280;43656;57.746;11.780;2023-03-25T11:13:00;99095.69;;;12.58;100.00
57827;BME280;43656;57.746;11.780;2023-03-25T11:15:39;99096.00;;;12.40;100.00
57827;BME280;43656;57.746;11.780;2023-03-25T11:18:25;99097.81;;;12.56;100.00
57827;BME280;43656;57.746;11.780;2023-03-25T11:20:56;99095.88;;;12.52;100.00
57827;BME280;43656;57.746;11.780;2023-03-25T11:23:31;99107.19;;;12.76;100.00
57827;BME280;43656;57.746;11.780;2023-03-25T11:26:36;99101.03;;;13.12;99.11
57827;BME280;43656;57.746;11.780;2023-03-25T11:29:12;99089.22;;;13.24;98.76
57827;BME280;43656;57.746;11.780;2023-03-25T11:31:40;99099.69;;;13.42;97.91
57827;BME280;43656;57.746;11.780;2023-03-25T11:36:36;99094.34;;;13.57;97.45
57827;BME280;43656;57.746;11.780;2023-03-25T11:39:36;99108.78;;;13.68;97.07
57827;BME280;43656;57.746;11.780;2023-03-25T11:42:34;99106.66;;;13.80;96.30
57827;BME280;43656;57.746;11.780;2023-03-25T11:44:59;99104.84;;;13.91;96.45
57827;BME280;43656;57.746;11.780;2023-03-25T11:47:37;99102.13;;;13.91;95.67
57827;BME280;43656;57.746;11.780;2023-03-25T11:50:04;99096.69;;;13.86;95.66
57827;BME280;43656;57.746;11.780;2023-03-25T11:52:41;99108.56;;;13.80;94.56
57827;BME280;43656;57.746;11.780;2023-03-25T11:55:18;99098.31;;;13.82;94.32
57827;BME280;43656;57.746;11.780;2023-03-25T11:57:45;99099.91;;;13.78;94.73
57827;BME280;43656;57.746;11.780;2023-03-25T12:05:25;99096.06;;;13.74;93.24
57827;BME280;43656;57.746;11.780;2023-03-25T12:08:00;99105.13;;;14.00;92.75
57827;BME280;43656;57.746;11.780;2023-03-25T12:13:08;99104.78;;;13.81;92.56
57827;BME280;43656;57.746;11.780;2023-03-25T12:21:32;99102.13;;;13.91;91.38
57827;BME280;43656;57.746;11.780;2023-03-25T12:35:29;99097.13;;;13.25;92.38
57827;BME280;43656;57.746;11.780;2023-03-25T12:38:08;99089.72;;;13.48;92.24
57827;BME280;43656;57.746;11.780;2023-03-25T12:40:59;99098.53;;;13.80;90.88
57827;BME280;43656;57.746;11.780;2023-03-25T12:46:11;99110.19;;;13.81;91.87
57827;BME280;43656;57.746;11.780;2023-03-25T12:51:51;99109.88;;;13.77;92.22
57827;BME280;43656;57.746;11.780;2023-03-25T12:54:43;99089.22;;;13.56;92.72
57827;BME280;43656;57.746;11.780;2023-03-25T12:57:41;99110.56;;;13.57;92.57
57827;BME280;43656;57.746;11.780;2023-03-25T13:00:22;99105.84;;;13.37;92.76
57827;BME280;43656;57.746;11.780;2023-03-25T13:11:13;99101.28;;;13.43;92.90
57827;BME280;43656;57.746;11.780;2023-03-25T13:13:43;99081.22;;;13.29;93.38
57827;BME280;43656;57.746;11.780;2023-03-25T13:16:19;99098.34;;;13.45;93.20
57827;BME280;43656;57.746;11.780;2023-03-25T13:19:01;99099.69;;;13.42;92.87
57827;BME280;43656;57.746;11.780;2023-03-25T13:21:31;99100.13;;;13.34;93.78
57827;BME280;43656;57.746;11.780;2023-03-25T13:24:01;99103.13;;;13.32;93.59
57827;BME280;43656;57.746;11.780;2023-03-25T13:26:30;99100.63;;;13.26;94.07
57827;BME280;43656;57.746;11.780;2023-03-25T13:28:59;99092.13;;;13.12;94.23
57827;BME280;43656;57.746;11.780;2023-03-25T13:31:32;99110.44;;;13.10;94.08
57827;BME280;43656;57.746;11.780;2023-03-25T13:36:35;99110.38;;;13.00;94.16
57827;BME280;43656;57.746;11.780;2023-03-25T13:39:09;99119.69;;;12.87;94.89
57827;BME280;43656;57.746;11.780;2023-03-25T13:41:43;99117.47;;;12.79;95.32
57827;BME280;43656;57.746;11.780;2023-03-25T13:47:14;99126.38;;;12.79;95.56
57827;BME280;43656;57.746;11.780;2023-03-25T13:50:14;99113.81;;;12.68;95.99
57827;BME280;43656;57.746;11.780;2023-03-25T13:52:47;99116.72;;;12.61;96.63
57827;BME280;43656;57.746;11.780;2023-03-25T13:55:20;99114.44;;;12.48;97.26
57827;BME280;43656;57.746;11.780;2023-03-25T14:03:52;99121.81;;;12.09;97.84
57827;BME280;43656;57.746;11.780;2023-03-25T14:06:36;99130.50;;;11.94;97.81
57827;BME280;43656;57.746;11.780;2023-03-25T14:14:55;99129.78;;;11.14;100.00
57827;BME280;43656;57.746;11.780;2023-03-25T14:17:22;99129.47;;;11.11;100.00
57827;BME280;43656;57.746;11.780;2023-03-25T14:19:51;99126.94;;;11.04;100.00
57827;BME280;43656;57.746;11.780;2023-03-25T14:22:28;99126.44;;;11.07;99.94
57827;BME280;43656;57.746;11.780;2023-03-25T14:24:56;99109.56;;;11.12;99.27
57827;BME280;43656;57.746;11.780;2023-03-25T14:27:32;99140.91;;;11.18;99.69
57827;BME280;43656;57.746;11.780;2023-03-25T14:30:02;99145.38;;;11.12;99.64
57827;BME280;43656;57.746;11.780;2023-03-25T14:48:37;99172.09;;;10.56;100.00
57827;BME280;43656;57.746;11.780;2023-03-25T14:52:01;99175.84;;;10.44;100.00
57827;BME280;43656;57.746;11.780;2023-03-25T14:54:24;99170.13;;;10.40;100.00
57827;BME280;43656;57.746;11.780;2023-03-25T14:59:31;99168.25;;;10.41;100.00
57827;BME280;43656;57.746;11.780;2023-03-25T15:02:04;99158.00;;;10.38;100.00
57827;BME280;43656;57.746;11.780;2023-03-25T15:04:36;99164.97;;;10.39;100.00
57827;BME280;43656;57.746;11.780;2023-03-25T15:07:03;99170.22;;;10.45;100.00
57827;BME280;43656;57.746;11.780;2023-03-25T15:09:45;99172.50;;;10.37;100.00
57827;BME280;43656;57.746;11.780;2023-03-25T15:12:15;99169.31;;;10.16;100.00